createdAt,value
2022-07-29T00:02:26.192Z,38.19
2022-07-29T00:04:52.932Z,37.88
2022-07-29T00:07:19.735Z,37.94
2022-07-29T00:09:52.110Z,38.02
2022-07-29T00:12:25.114Z,38.16
2022-07-29T00:14:56.284Z,38.06
2022-07-29T00:17:26.067Z,38.04
2022-07-29T00:19:58.569Z,38.34
2022-07-29T00:22:25.073Z,38.16
2022-07-29T00:24:51.632Z,38.61
2022-07-29T00:27:19.073Z,38.46
2022-07-29T00:29:45.816Z,38.33
2022-07-29T00:32:12.361Z,38.72
2022-07-29T00:34:57.562Z,39.01
2022-07-29T00:37:24.168Z,38.54
2022-07-29T00:39:50.755Z,38.95
2022-07-29T00:42:18.303Z,38.83
2022-07-29T00:44:44.824Z,38.79
2022-07-29T00:47:12.770Z,38.71
2022-07-29T00:49:41.078Z,38.50
2022-07-29T00:52:09.051Z,38.65
2022-07-29T00:54:37.412Z,38.53
2022-07-29T00:57:10.932Z,38.78
2022-07-29T00:59:39.552Z,38.67
2022-07-29T01:02:06.137Z,38.81
2022-07-29T01:04:33.277Z,38.52
2022-07-29T01:07:02.444Z,38.81
2022-07-29T01:09:34.461Z,38.47
2022-07-29T01:12:17.113Z,38.37
2022-07-29T01:14:44.586Z,38.51
2022-07-29T01:17:29.687Z,38.43
2022-07-29T01:20:03.935Z,38.42
2022-07-29T01:22:42.566Z,38.58
2022-07-29T01:25:33.874Z,38.51
2022-07-29T01:28:33.712Z,38.48
2022-07-29T01:31:01.438Z,38.56
2022-07-29T01:33:50.414Z,38.68
2022-07-29T01:36:34.648Z,38.75
2022-07-29T01:39:08.600Z,38.80
2022-07-29T01:41:38.272Z,38.76
2022-07-29T01:44:21.138Z,39.14
2022-07-29T01:46:55.081Z,38.91
2022-07-29T01:49:28.097Z,39.33
2022-07-29T01:52:01.555Z,39.82
2022-07-29T01:54:36.711Z,40.02
2022-07-29T01:57:07.039Z,39.40
2022-07-29T01:59:36.383Z,39.46
2022-07-29T02:02:03.379Z,39.73
2022-07-29T02:04:33.430Z,41.29
2022-07-29T02:07:04.930Z,41.14
2022-07-29T02:09:34.281Z,41.46
2022-07-29T02:12:02.976Z,40.90
2022-07-29T02:14:34.305Z,42.47
2022-07-29T02:17:02.676Z,42.04
2022-07-29T02:19:32.739Z,41.61
2022-07-29T02:22:01.023Z,41.73
2022-07-29T02:24:29.549Z,42.12
2022-07-29T02:26:58.845Z,41.43
2022-07-29T02:29:29.281Z,42.33
2022-07-29T02:31:59.414Z,44.21
2022-07-29T02:34:27.751Z,44.54
2022-07-29T02:36:56.315Z,43.89
2022-07-29T02:39:24.265Z,44.24
2022-07-29T02:41:56.589Z,44.68
2022-07-29T02:44:27.333Z,43.82
2022-07-29T02:47:16.360Z,43.68
2022-07-29T02:50:05.336Z,44.82
2022-07-29T02:52:46.151Z,45.66
2022-07-29T02:55:31.506Z,45.61
2022-07-29T02:58:15.327Z,45.91
2022-07-29T03:00:42.722Z,46.36
2022-07-29T03:03:14.129Z,47.10
2022-07-29T03:05:41.464Z,47.75
2022-07-29T03:08:11.517Z,47.70
2022-07-29T03:10:41.342Z,47.75
2022-07-29T03:13:08.840Z,47.94
2022-07-29T03:15:36.703Z,47.85
2022-07-29T03:18:03.773Z,47.79
2022-07-29T03:20:30.595Z,48.07
2022-07-29T03:22:57.116Z,49.13
2022-07-29T03:25:23.672Z,48.67
2022-07-29T03:27:51.052Z,48.65
2022-07-29T03:30:18.286Z,48.03
2022-07-29T03:32:48.482Z,47.67
2022-07-29T03:35:17.467Z,48.37
2022-07-29T03:37:44.932Z,48.55
2022-07-29T03:40:15.350Z,48.73
2022-07-29T03:42:43.460Z,48.76
2022-07-29T03:45:16.378Z,49.10
2022-07-29T03:47:51.017Z,49.62
2022-07-29T03:50:21.140Z,49.60
2022-07-29T03:52:50.054Z,50.81
2022-07-29T03:55:16.919Z,50.73
2022-07-29T03:57:46.164Z,50.92
2022-07-29T04:00:13.240Z,49.98
2022-07-29T04:02:40.317Z,50.16
2022-07-29T04:05:13.450Z,50.61
2022-07-29T04:07:40.473Z,51.06
2022-07-29T04:10:10.374Z,51.26
2022-07-29T04:12:36.875Z,50.69
2022-07-29T04:15:07.140Z,51.42
2022-07-29T04:17:33.639Z,50.33
2022-07-29T04:20:00.208Z,50.85
2022-07-29T04:22:26.760Z,50.40
2022-07-29T04:24:54.031Z,50.95
2022-07-29T04:27:20.514Z,51.26
2022-07-29T04:29:57.102Z,52.25
2022-07-29T04:32:24.779Z,51.79
2022-07-29T04:34:51.215Z,51.66
2022-07-29T04:37:18.693Z,51.97
2022-07-29T04:39:45.121Z,51.73
2022-07-29T04:42:11.593Z,51.83
2022-07-29T04:44:39.825Z,51.20
2022-07-29T04:47:09.998Z,51.05
2022-07-29T04:49:39.151Z,51.61
2022-07-29T04:52:07.281Z,51.63
2022-07-29T04:57:00.964Z,50.51
2022-07-29T04:59:28.003Z,50.00
2022-07-29T05:01:54.602Z,48.35
2022-07-29T05:04:21.251Z,47.20
2022-07-29T05:06:47.969Z,45.57
2022-07-29T05:09:14.486Z,43.92
2022-07-29T05:11:40.967Z,44.13
2022-07-29T05:14:07.425Z,43.91
2022-07-29T05:16:34.487Z,42.54
2022-07-29T05:19:01.055Z,42.49
2022-07-29T05:21:27.546Z,39.61
2022-07-29T05:23:54.048Z,40.71
2022-07-29T05:26:20.530Z,37.70
2022-07-29T05:28:47.066Z,36.78
2022-07-29T05:31:15.621Z,35.96
2022-07-29T05:33:42.814Z,35.05
2022-07-29T05:36:09.367Z,34.97
2022-07-29T05:38:36.609Z,35.02
2022-07-29T05:41:03.466Z,35.31
2022-07-29T05:43:30.224Z,34.16
2022-07-29T05:45:57.673Z,32.96
2022-07-29T05:48:24.210Z,31.17
2022-07-29T05:50:50.790Z,30.43
2022-07-29T05:53:18.853Z,30.76
2022-07-29T05:55:46.805Z,28.02
2022-07-29T05:58:13.420Z,28.55
2022-07-29T06:00:39.925Z,28.83
2022-07-29T06:03:06.492Z,27.87
2022-07-29T06:05:33.070Z,26.87
2022-07-29T06:07:59.595Z,27.06
2022-07-29T06:10:28.943Z,28.10
2022-07-29T06:12:55.675Z,27.01
2022-07-29T06:15:22.216Z,27.47
2022-07-29T06:18:00.126Z,27.46
2022-07-29T06:20:32.091Z,28.65
2022-07-29T06:22:59.180Z,27.52
2022-07-29T06:25:25.787Z,27.54
2022-07-29T06:27:52.241Z,27.53
2022-07-29T06:30:18.750Z,27.40
2022-07-29T06:32:45.250Z,27.40
2022-07-29T06:35:41.703Z,27.36
2022-07-29T06:37:59.814Z,27.32
2022-07-29T06:40:45.635Z,27.42
2022-07-29T06:43:12.290Z,27.71
2022-07-29T06:45:42.207Z,26.89
2022-07-29T06:48:09.419Z,26.61
2022-07-29T06:50:35.913Z,25.68
2022-07-29T06:53:02.385Z,28.10
2022-07-29T06:55:28.889Z,26.96
2022-07-29T06:57:55.358Z,27.46
2022-07-29T07:00:21.883Z,27.47
2022-07-29T07:02:48.893Z,27.45
2022-07-29T07:05:15.489Z,28.25
2022-07-29T07:07:41.988Z,27.01
2022-07-29T07:10:09.209Z,27.23
2022-07-29T07:12:35.585Z,27.03
2022-07-29T07:15:01.960Z,26.58
2022-07-29T07:17:28.384Z,26.08
2022-07-29T07:19:54.745Z,26.53
2022-07-29T07:22:21.321Z,27.44
2022-07-29T07:24:47.760Z,27.49
2022-07-29T07:27:14.279Z,28.17
2022-07-29T07:29:42.483Z,29.91
2022-07-29T07:32:11.052Z,30.16
2022-07-29T07:34:38.894Z,28.90
2022-07-29T07:37:06.544Z,28.23
2022-07-29T07:39:33.093Z,27.68
2022-07-29T07:41:59.920Z,28.53
2022-07-29T07:44:26.559Z,27.88
2022-07-29T07:46:53.270Z,28.06
2022-07-29T07:49:21.323Z,29.49
2022-07-29T07:51:50.386Z,30.54
2022-07-29T07:54:17.922Z,28.74
2022-07-29T07:56:45.046Z,29.22
2022-07-29T07:59:11.577Z,28.57
2022-07-29T08:01:49.960Z,27.26
2022-07-29T08:04:28.020Z,28.54
2022-07-29T08:06:56.636Z,29.70
2022-07-29T08:09:29.766Z,30.14
2022-07-29T08:11:58.662Z,30.54
2022-07-29T08:14:25.394Z,31.38
2022-07-29T08:16:53.680Z,30.48
2022-07-29T08:19:20.405Z,30.85
2022-07-29T08:21:46.983Z,31.10
2022-07-29T08:24:32.125Z,32.06
2022-07-29T08:26:58.611Z,31.86
2022-07-29T08:29:25.115Z,32.94
2022-07-29T08:31:51.894Z,32.84
2022-07-29T08:34:18.723Z,32.71
2022-07-29T08:36:52.774Z,31.25
2022-07-29T08:39:19.317Z,29.64
2022-07-29T08:41:48.760Z,29.94
2022-07-29T08:44:30.554Z,27.83
2022-07-29T08:46:57.840Z,27.21
2022-07-29T08:49:24.412Z,27.08
2022-07-29T08:51:52.173Z,25.77
2022-07-29T08:54:19.434Z,26.48
2022-07-29T08:56:48.978Z,26.28
2022-07-29T08:59:16.093Z,26.52
2022-07-29T09:01:45.247Z,26.97
2022-07-29T09:04:13.115Z,28.54
2022-07-29T09:06:44.606Z,28.49
2022-07-29T09:09:11.362Z,29.02
2022-07-29T09:11:38.314Z,30.53
2022-07-29T09:14:04.783Z,30.40
2022-07-29T09:16:55.461Z,30.83
2022-07-29T09:19:27.512Z,30.18
2022-07-29T09:22:03.555Z,31.24
2022-07-29T09:24:44.205Z,30.46
2022-07-29T09:27:27.197Z,29.10
2022-07-29T09:30:01.989Z,29.17
2022-07-29T09:32:29.250Z,29.05
2022-07-29T09:35:15.191Z,29.64
2022-07-29T09:37:41.783Z,28.59
2022-07-29T09:40:31.635Z,29.02
2022-07-29T09:42:58.329Z,28.42
2022-07-29T09:45:29.478Z,28.85
2022-07-29T09:47:58.409Z,30.10
2022-07-29T09:50:36.383Z,30.65
2022-07-29T09:53:02.867Z,30.89
2022-07-29T09:55:29.405Z,31.62
2022-07-29T09:58:16.407Z,31.95
2022-07-29T10:00:43.895Z,33.66
2022-07-29T10:03:10.590Z,33.40
2022-07-29T10:05:40.462Z,33.66
2022-07-29T10:08:07.014Z,33.94
2022-07-29T10:10:36.008Z,34.20
2022-07-29T10:13:08.918Z,33.68
2022-07-29T10:15:41.894Z,33.74
2022-07-29T10:18:09.938Z,35.00
2022-07-29T10:20:37.284Z,34.51
2022-07-29T10:23:04.090Z,34.16
2022-07-29T10:25:31.195Z,33.67
2022-07-29T10:27:58.307Z,33.10
2022-07-29T10:30:28.909Z,32.57
2022-07-29T10:33:38.600Z,33.71
2022-07-29T10:36:34.675Z,32.51
2022-07-29T10:39:44.784Z,33.47
2022-07-29T10:42:20.504Z,32.26
2022-07-29T10:45:01.550Z,33.03
2022-07-29T10:47:28.535Z,32.51
2022-07-29T10:50:01.390Z,33.16
2022-07-29T10:52:50.047Z,33.11
2022-07-29T10:55:43.101Z,33.31
2022-07-29T10:58:17.802Z,32.51
2022-07-29T11:00:45.929Z,33.11
2022-07-29T11:03:41.572Z,33.34
2022-07-29T11:06:16.608Z,32.73
2022-07-29T11:08:44.690Z,32.49
2022-07-29T11:11:32.215Z,32.83
2022-07-29T11:13:58.981Z,32.36
2022-07-29T11:16:26.617Z,33.30
2022-07-29T11:19:13.417Z,33.53
2022-07-29T11:21:55.512Z,33.18
2022-07-29T11:24:32.418Z,34.44
2022-07-29T11:27:19.858Z,34.41
2022-07-29T11:29:54.009Z,35.23
2022-07-29T11:32:23.381Z,35.43
2022-07-29T11:35:37.481Z,35.91
2022-07-29T11:38:28.381Z,36.12
2022-07-29T11:41:25.113Z,36.16
2022-07-29T11:43:59.841Z,37.05
2022-07-29T11:46:47.491Z,36.98
2022-07-29T11:49:15.317Z,36.04
2022-07-29T11:51:48.351Z,35.77
2022-07-29T11:54:27.475Z,36.26
2022-07-29T11:56:54.937Z,36.40
2022-07-29T11:59:22.845Z,35.63
2022-07-29T12:02:18.422Z,35.31
2022-07-29T12:04:55.661Z,35.12
2022-07-29T12:07:34.631Z,34.55
2022-07-29T12:10:03.060Z,33.90
2022-07-29T12:12:29.525Z,34.37
2022-07-29T12:14:56.323Z,33.40
2022-07-29T12:17:36.026Z,33.12
2022-07-29T12:20:05.247Z,33.24
2022-07-29T12:22:41.849Z,33.53
2022-07-29T12:28:07.392Z,31.56
2022-07-29T12:30:40.627Z,32.02
2022-07-29T12:33:30.486Z,31.08
2022-07-29T12:36:06.955Z,30.96
2022-07-29T12:38:41.214Z,31.32
2022-07-29T12:41:07.965Z,31.02
2022-07-29T12:43:34.540Z,31.59
2022-07-29T12:46:13.634Z,31.95
2022-07-29T12:48:42.452Z,32.08
2022-07-29T12:51:11.032Z,31.88
2022-07-29T12:53:37.936Z,31.64
2022-07-29T12:56:20.710Z,31.44
2022-07-29T12:58:52.709Z,31.24
2022-07-29T13:01:21.051Z,31.47
2022-07-29T13:04:01.071Z,32.17
2022-07-29T13:06:30.586Z,31.34
2022-07-29T13:09:14.497Z,32.09
2022-07-29T13:11:48.417Z,31.48
2022-07-29T13:14:35.848Z,31.26
2022-07-29T13:17:02.282Z,30.61
2022-07-29T13:19:42.192Z,29.37
2022-07-29T13:22:14.319Z,28.65
2022-07-29T13:24:58.371Z,27.45
2022-07-29T13:27:27.080Z,28.97
2022-07-29T13:29:57.419Z,28.76
2022-07-29T13:32:28.788Z,29.64
2022-07-29T13:35:01.208Z,30.04
2022-07-29T13:37:33.822Z,31.95
2022-07-29T13:40:00.855Z,31.79
2022-07-29T13:42:27.515Z,32.46
2022-07-29T13:44:53.988Z,33.27
2022-07-29T13:47:21.692Z,33.33
2022-07-29T13:49:48.566Z,34.17
2022-07-29T13:52:16.526Z,34.26
2022-07-29T13:54:44.084Z,34.70
2022-07-29T13:57:11.987Z,35.07
2022-07-29T13:59:43.016Z,34.79
2022-07-29T14:02:11.261Z,35.22
2022-07-29T14:04:39.714Z,36.42
2022-07-29T14:07:06.536Z,35.99
2022-07-29T14:09:37.443Z,36.49
2022-07-29T14:12:08.947Z,37.86
2022-07-29T14:14:37.298Z,38.90
2022-07-29T14:17:04.351Z,41.99
2022-07-29T14:19:33.018Z,44.70
2022-07-29T14:22:00.080Z,47.16
2022-07-29T14:24:26.924Z,55.58
2022-07-29T14:26:53.463Z,58.97
2022-07-29T14:29:20.027Z,62.13
2022-07-29T14:31:46.653Z,62.48
2022-07-29T14:34:16.366Z,65.30
2022-07-29T14:36:43.146Z,67.03
2022-07-29T14:39:09.782Z,69.98
2022-07-29T14:41:36.354Z,69.20
2022-07-29T14:44:03.013Z,70.18
2022-07-29T14:46:29.868Z,72.73
2022-07-29T14:48:56.417Z,74.00
2022-07-29T14:51:22.917Z,77.58
2022-07-29T14:53:49.373Z,74.25
2022-07-29T14:56:36.103Z,76.71
2022-07-29T14:59:02.382Z,78.05
2022-07-29T15:01:29.006Z,81.94
2022-07-29T15:03:59.518Z,78.13
2022-07-29T15:06:26.929Z,78.17
2022-07-29T15:08:53.527Z,79.79
2022-07-29T15:11:20.010Z,79.08
2022-07-29T15:13:46.517Z,80.70
2022-07-29T15:16:13.153Z,80.66
2022-07-29T15:18:39.638Z,83.66
2022-07-29T15:21:07.890Z,82.71
2022-07-29T15:23:37.201Z,84.35
2022-07-29T15:26:04.952Z,82.65
2022-07-29T15:28:31.558Z,83.74
2022-07-29T15:30:58.164Z,82.06
2022-07-29T15:33:24.791Z,77.98
2022-07-29T15:35:51.310Z,80.26
2022-07-29T15:38:18.270Z,80.73
2022-07-29T15:40:45.408Z,82.08
2022-07-29T15:43:12.563Z,81.23
2022-07-29T15:45:41.316Z,81.96
2022-07-29T15:48:08.935Z,81.43
2022-07-29T15:50:35.762Z,81.69
2022-07-29T15:53:02.615Z,82.03
2022-07-29T15:55:29.196Z,83.29
2022-07-29T15:58:00.292Z,83.47
2022-07-29T16:00:27.185Z,83.28
2022-07-29T16:02:53.682Z,83.98
2022-07-29T16:05:20.297Z,83.16
2022-07-29T16:07:46.748Z,84.75
2022-07-29T16:10:13.290Z,85.32
2022-07-29T16:12:39.792Z,84.66
2022-07-29T16:15:10.007Z,83.78
2022-07-29T16:17:37.871Z,83.60
2022-07-29T16:20:06.122Z,85.12
2022-07-29T16:22:32.763Z,84.69
2022-07-29T16:24:59.313Z,85.26
2022-07-29T16:27:34.299Z,85.14
2022-07-29T16:30:05.268Z,84.86
2022-07-29T16:32:31.788Z,85.50
2022-07-29T16:34:58.646Z,84.63
2022-07-29T16:37:25.220Z,83.92
2022-07-29T16:39:55.317Z,83.95
2022-07-29T16:42:44.286Z,84.20
2022-07-29T16:45:08.967Z,85.94
2022-07-29T16:47:36.111Z,85.99
2022-07-29T16:50:02.790Z,83.95
2022-07-29T16:52:29.428Z,82.85
2022-07-29T16:54:56.013Z,83.98
2022-07-29T16:57:22.510Z,83.85
2022-07-29T16:59:50.993Z,83.70
2022-07-29T17:02:18.003Z,83.07
2022-07-29T17:04:44.525Z,84.14
2022-07-29T17:07:11.030Z,81.73
2022-07-29T17:09:37.538Z,81.38
2022-07-29T17:12:04.475Z,82.09
2022-07-29T17:14:31.194Z,82.15
2022-07-29T17:17:01.064Z,84.07
2022-07-29T17:19:35.303Z,85.49
2022-07-29T17:22:17.116Z,84.56
2022-07-29T17:24:46.116Z,84.61
2022-07-29T17:27:12.752Z,86.28
2022-07-29T17:29:39.411Z,85.83
2022-07-29T17:32:07.564Z,85.23
2022-07-29T17:34:38.765Z,86.07
2022-07-29T17:37:07.860Z,85.70
2022-07-29T17:39:35.617Z,86.27
2022-07-29T17:42:03.391Z,86.69
2022-07-29T17:44:30.117Z,86.01
2022-07-29T17:46:56.969Z,86.00
2022-07-29T17:49:23.899Z,86.63
2022-07-29T17:51:50.388Z,86.70
2022-07-29T17:54:16.828Z,88.49
2022-07-29T17:56:43.302Z,88.88
2022-07-29T17:59:10.288Z,86.98
2022-07-29T18:01:38.104Z,86.23
2022-07-29T18:04:04.780Z,88.10
2022-07-29T18:06:31.270Z,88.46
2022-07-29T18:08:57.789Z,87.81
2022-07-29T18:11:24.306Z,86.58
2022-07-29T18:13:50.943Z,87.34
2022-07-29T18:16:18.154Z,86.96
2022-07-29T18:18:45.545Z,87.37
2022-07-29T18:21:12.097Z,86.64
2022-07-29T18:23:38.541Z,85.92
2022-07-29T18:26:05.207Z,86.24
2022-07-29T18:28:32.745Z,88.00
2022-07-29T18:31:00.225Z,88.69
2022-07-29T18:33:26.771Z,89.13
2022-07-29T18:36:10.598Z,90.06
2022-07-29T18:38:39.278Z,89.55
2022-07-29T18:41:05.741Z,88.84
2022-07-29T18:43:32.199Z,90.29
2022-07-29T18:45:58.665Z,89.96
2022-07-29T18:48:25.168Z,89.94
2022-07-29T18:50:51.650Z,90.03
2022-07-29T18:53:18.235Z,90.38
2022-07-29T18:55:44.919Z,89.86
2022-07-29T18:58:11.390Z,90.05
2022-07-29T19:00:38.044Z,88.47
2022-07-29T19:03:04.651Z,88.54
2022-07-29T19:05:31.482Z,88.67
2022-07-29T19:07:57.945Z,88.79
2022-07-29T19:10:24.483Z,88.47
2022-07-29T19:12:51.021Z,88.66
2022-07-29T19:15:20.299Z,88.83
2022-07-29T19:17:47.966Z,88.58
2022-07-29T19:20:14.661Z,89.57
2022-07-29T19:22:41.169Z,89.06
2022-07-29T19:25:08.258Z,89.30
2022-07-29T19:27:34.701Z,89.33
2022-07-29T19:30:03.316Z,88.94
2022-07-29T19:32:29.891Z,89.62
2022-07-29T19:35:15.159Z,89.06
2022-07-29T19:37:41.609Z,88.22
2022-07-29T19:40:10.014Z,88.60
2022-07-29T19:42:36.502Z,88.19
2022-07-29T19:45:03.377Z,87.69
2022-07-29T19:47:29.942Z,86.97
2022-07-29T19:49:56.404Z,88.09
2022-07-29T19:52:22.830Z,89.39
2022-07-29T19:54:49.342Z,89.83
2022-07-29T19:57:15.804Z,89.75
2022-07-29T19:59:45.820Z,90.34
2022-07-29T20:02:13.279Z,89.69
2022-07-29T20:04:40.264Z,89.94
2022-07-29T20:07:07.059Z,89.76
2022-07-29T20:09:33.648Z,89.61
2022-07-29T20:12:00.347Z,89.51
2022-07-29T20:14:27.061Z,90.25
2022-07-29T20:16:56.449Z,90.10
2022-07-29T20:19:22.931Z,90.45
2022-07-29T20:21:51.360Z,90.11
2022-07-29T20:24:18.764Z,91.11
2022-07-29T20:26:45.206Z,91.47
2022-07-29T20:29:11.681Z,91.23
2022-07-29T20:31:38.237Z,90.89
2022-07-29T20:34:04.914Z,91.62
2022-07-29T20:36:31.689Z,91.78
2022-07-29T20:39:00.010Z,91.11
2022-07-29T20:41:26.661Z,90.26
2022-07-29T20:43:53.112Z,91.35
2022-07-29T20:46:19.662Z,91.10
2022-07-29T20:48:47.131Z,91.62
2022-07-29T20:51:14.628Z,91.21
2022-07-29T20:53:41.591Z,91.58
2022-07-29T20:56:08.528Z,91.46
2022-07-29T20:58:36.212Z,91.22
2022-07-29T21:01:03.145Z,91.31
2022-07-29T21:03:29.762Z,92.24
2022-07-29T21:05:56.469Z,92.20
2022-07-29T21:08:23.044Z,92.82
2022-07-29T21:10:49.567Z,92.63
2022-07-29T21:13:16.616Z,92.53
2022-07-29T21:15:46.213Z,92.39
2022-07-29T21:18:30.519Z,92.04
2022-07-29T21:21:00.434Z,90.78
2022-07-29T21:23:27.638Z,91.43
2022-07-29T21:25:54.919Z,91.67
2022-07-29T21:28:27.405Z,91.11
2022-07-29T21:30:58.813Z,90.80
2022-07-29T21:33:28.482Z,91.10
2022-07-29T21:38:41.853Z,90.73
2022-07-29T21:41:08.449Z,90.56
2022-07-29T21:43:34.915Z,91.70
2022-07-29T21:46:01.437Z,91.41
2022-07-29T21:48:28.588Z,92.10
2022-07-29T21:50:55.585Z,91.77
2022-07-29T21:53:22.296Z,91.61
2022-07-29T21:55:50.705Z,92.19
2022-07-29T21:58:18.151Z,91.58
2022-07-29T22:00:44.822Z,92.42
2022-07-29T22:03:11.509Z,92.26
2022-07-29T22:05:38.117Z,91.95
2022-07-29T22:08:04.921Z,91.85
2022-07-29T22:10:31.392Z,91.82
2022-07-29T22:12:59.143Z,91.29
2022-07-29T22:15:26.243Z,91.79
2022-07-29T22:17:53.103Z,91.68
2022-07-29T22:20:20.500Z,91.70
2022-07-29T22:22:48.135Z,91.95
2022-07-29T22:25:14.626Z,92.37
2022-07-29T22:27:41.376Z,92.46
2022-07-29T22:30:08.947Z,91.62
2022-07-29T22:32:36.946Z,91.61
2022-07-29T22:35:03.651Z,91.48
2022-07-29T22:37:30.215Z,90.96
2022-07-29T22:39:56.851Z,90.89
2022-07-29T22:42:23.684Z,90.98
2022-07-29T22:44:50.354Z,91.37
2022-07-29T22:47:16.935Z,91.05
2022-07-29T22:49:43.396Z,91.76
2022-07-29T22:52:09.977Z,91.75
2022-07-29T22:54:38.243Z,90.30
2022-07-29T22:57:05.629Z,90.63
2022-07-29T23:01:59.321Z,91.80
2022-07-29T23:04:25.809Z,92.44
2022-07-29T23:06:52.325Z,92.13
2022-07-29T23:09:18.949Z,92.20
2022-07-29T23:11:46.107Z,91.50
2022-07-29T23:14:12.807Z,90.56
2022-07-29T23:16:39.334Z,91.78
2022-07-29T23:19:05.854Z,92.54
2022-07-29T23:21:32.534Z,92.98
2022-07-29T23:23:59.059Z,91.99
2022-07-29T23:26:25.588Z,92.41
2022-07-29T23:28:52.072Z,93.00
2022-07-29T23:31:18.939Z,92.30
2022-07-29T23:33:45.442Z,92.31
2022-07-29T23:36:11.911Z,92.10
2022-07-29T23:38:41.417Z,92.61
2022-07-29T23:41:09.721Z,92.80
2022-07-29T23:43:39.320Z,91.92
2022-07-29T23:46:06.374Z,91.83
2022-07-29T23:48:33.566Z,92.58
2022-07-29T23:51:01.187Z,92.71
2022-07-29T23:53:28.523Z,92.69
2022-07-29T23:55:56.142Z,92.76
2022-07-29T23:58:22.875Z,93.39
